sensor_id;sensor_type;location;lat;lon;timestamp;pressure;altitude;pressure_sealevel;temperature;humidity
19676;BME280;39539;52.202;9.876;2023-07-22T00:00:08;100568.41;;;12.26;100.00
19676;BME280;39539;52.202;9.876;2023-07-22T00:02:38;100563.06;;;12.26;100.00
19676;BME280;39539;52.202;9.876;2023-07-22T00:05:04;100555.66;;;12.28;100.00
19676;BME280;39539;52.202;9.876;2023-07-22T00:07:29;100569.06;;;12.40;100.00
19676;BME280;39539;52.202;9.876;2023-07-22T00:09:55;100562.34;;;12.37;100.00
19676;BME280;39539;52.202;9.876;2023-07-22T00:12:20;100562.09;;;12.39;100.00
19676;BME280;39539;52.202;9.876;2023-07-22T00:14:49;100567.06;;;12.35;100.00
19676;BME280;39539;52.202;9.876;2023-07-22T00:17:15;100581.72;;;12.44;100.00
19676;BME280;39539;52.202;9.876;2023-07-22T00:19:40;100590.97;;;12.42;100.00
19676;BME280;39539;52.202;9.876;2023-07-22T00:22:06;100583.88;;;12.35;100.00
19676;BME280;39539;52.202;9.876;2023-07-22T00:24:31;100574.03;;;12.36;100.00
19676;BME280;39539;52.202;9.876;2023-07-22T00:26:57;100581.28;;;12.47;100.00
19676;BME280;39539;52.202;9.876;2023-07-22T00:29:22;100589.00;;;12.55;100.00
19676;BME280;39539;52.202;9.876;2023-07-22T00:31:47;100589.88;;;12.68;100.00
19676;BME280;39539;52.202;9.876;2023-07-22T00:34:14;100581.00;;;12.74;100.00
19676;BME280;39539;52.202;9.876;2023-07-22T00:36:39;100576.69;;;12.73;100.00
19676;BME280;39539;52.202;9.876;2023-07-22T00:39:05;100578.69;;;12.77;100.00
19676;BME280;39539;52.202;9.876;2023-07-22T00:41:31;100594.47;;;12.97;100.00
19676;BME280;39539;52.202;9.876;2023-07-22T00:43:56;100589.28;;;13.02;100.00
19676;BME280;39539;52.202;9.876;2023-07-22T00:46:23;100583.50;;;13.06;100.00
19676;BME280;39539;52.202;9.876;2023-07-22T00:48:49;100585.47;;;13.10;100.00
19676;BME280;39539;52.202;9.876;2023-07-22T00:51:15;100582.44;;;13.07;100.00
19676;BME280;39539;52.202;9.876;2023-07-22T00:53:40;100583.94;;;13.02;100.00
19676;BME280;39539;52.202;9.876;2023-07-22T00:56:06;100579.13;;;12.93;100.00
19676;BME280;39539;52.202;9.876;2023-07-22T00:58:32;100569.94;;;12.70;100.00
19676;BME280;39539;52.202;9.876;2023-07-22T01:00:58;100584.25;;;12.57;100.00
19676;BME280;39539;52.202;9.876;2023-07-22T01:03:23;100575.94;;;12.47;100.00
19676;BME280;39539;52.202;9.876;2023-07-22T01:05:50;100580.47;;;12.47;100.00
19676;BME280;39539;52.202;9.876;2023-07-22T01:08:18;100563.34;;;12.36;100.00
19676;BME280;39539;52.202;9.876;2023-07-22T01:10:43;100579.50;;;12.41;100.00
19676;BME280;39539;52.202;9.876;2023-07-22T01:13:09;100573.28;;;12.29;100.00
19676;BME280;39539;52.202;9.876;2023-07-22T01:15:34;100569.56;;;12.30;100.00
19676;BME280;39539;52.202;9.876;2023-07-22T01:18:02;100564.63;;;12.33;100.00
19676;BME280;39539;52.202;9.876;2023-07-22T01:20:29;100580.75;;;12.39;100.00
19676;BME280;39539;52.202;9.876;2023-07-22T01:22:54;100573.22;;;12.35;100.00
19676;BME280;39539;52.202;9.876;2023-07-22T01:25:21;100567.34;;;12.27;100.00
19676;BME280;39539;52.202;9.876;2023-07-22T01:27:48;100585.13;;;12.33;100.00
19676;BME280;39539;52.202;9.876;2023-07-22T01:30:13;100573.13;;;12.24;100.00
19676;BME280;39539;52.202;9.876;2023-07-22T01:32:39;100575.63;;;12.19;100.00
19676;BME280;39539;52.202;9.876;2023-07-22T01:35:05;100584.50;;;12.12;100.00
19676;BME280;39539;52.202;9.876;2023-07-22T01:37:33;100583.09;;;12.10;100.00
19676;BME280;39539;52.202;9.876;2023-07-22T01:39:58;100573.47;;;12.09;100.00
19676;BME280;39539;52.202;9.876;2023-07-22T01:42:23;100582.06;;;12.11;100.00
19676;BME280;39539;52.202;9.876;2023-07-22T01:44:49;100573.53;;;12.02;100.00
19676;BME280;39539;52.202;9.876;2023-07-22T01:47:14;100580.53;;;11.97;100.00
19676;BME280;39539;52.202;9.876;2023-07-22T01:49:39;100570.56;;;11.92;100.00
19676;BME280;39539;52.202;9.876;2023-07-22T01:52:05;100577.34;;;11.88;100.00
19676;BME280;39539;52.202;9.876;2023-07-22T01:54:31;100572.66;;;11.83;100.00
19676;BME280;39539;52.202;9.876;2023-07-22T01:56:56;100572.47;;;11.78;100.00
19676;BME280;39539;52.202;9.876;2023-07-22T01:59:22;100579.22;;;11.81;100.00
19676;BME280;39539;52.202;9.876;2023-07-22T02:01:47;100579.78;;;11.83;100.00
19676;BME280;39539;52.202;9.876;2023-07-22T02:04:13;100576.56;;;11.81;100.00
19676;BME280;39539;52.202;9.876;2023-07-22T02:06:38;100579.78;;;11.83;100.00
19676;BME280;39539;52.202;9.876;2023-07-22T02:09:03;100574.53;;;11.76;100.00
19676;BME280;39539;52.202;9.876;2023-07-22T02:11:35;100574.47;;;11.83;100.00
19676;BME280;39539;52.202;9.876;2023-07-22T02:14:00;100576.13;;;11.84;100.00
19676;BME280;39539;52.202;9.876;2023-07-22T02:16:25;100584.72;;;11.86;100.00
19676;BME280;39539;52.202;9.876;2023-07-22T02:18:50;100580.41;;;11.85;100.00
19676;BME280;39539;52.202;9.876;2023-07-22T02:21:16;100578.53;;;11.92;100.00
19676;BME280;39539;52.202;9.876;2023-07-22T02:23:41;100599.72;;;12.05;100.00
19676;BME280;39539;52.202;9.876;2023-07-22T02:26:07;100578.84;;;12.02;100.00
19676;BME280;39539;52.202;9.876;2023-07-22T02:28:33;100600.06;;;12.16;100.00
19676;BME280;39539;52.202;9.876;2023-07-22T02:31:01;100592.22;;;12.21;100.00
19676;BME280;39539;52.202;9.876;2023-07-22T02:33:31;100604.84;;;12.32;100.00
19676;BME280;39539;52.202;9.876;2023-07-22T02:35:57;100591.06;;;12.35;100.00
19676;BME280;39539;52.202;9.876;2023-07-22T02:38:22;100595.50;;;12.41;100.00
19676;BME280;39539;52.202;9.876;2023-07-22T02:40:49;100591.44;;;12.39;100.00
19676;BME280;39539;52.202;9.876;2023-07-22T02:43:14;100586.16;;;12.32;100.00
19676;BME280;39539;52.202;9.876;2023-07-22T02:45:41;100584.38;;;12.26;100.00
19676;BME280;39539;52.202;9.876;2023-07-22T02:48:07;100587.19;;;12.31;100.00
19676;BME280;39539;52.202;9.876;2023-07-22T02:50:32;100582.00;;;12.18;100.00
19676;BME280;39539;52.202;9.876;2023-07-22T02:52:58;100585.25;;;12.20;100.00
19676;BME280;39539;52.202;9.876;2023-07-22T02:55:24;100598.13;;;12.23;100.00
19676;BME280;39539;52.202;9.876;2023-07-22T02:57:50;100602.06;;;12.20;100.00
19676;BME280;39539;52.202;9.876;2023-07-22T03:00:17;100595.00;;;12.07;100.00
19676;BME280;39539;52.202;9.876;2023-07-22T03:02:52;100605.00;;;12.12;100.00
19676;BME280;39539;52.202;9.876;2023-07-22T03:05:18;100596.84;;;12.07;100.00
19676;BME280;39539;52.202;9.876;2023-07-22T03:07:43;100584.44;;;11.94;100.00
19676;BME280;39539;52.202;9.876;2023-07-22T03:10:09;100612.47;;;12.03;100.00
19676;BME280;39539;52.202;9.876;2023-07-22T03:12:35;100600.59;;;11.99;100.00
19676;BME280;39539;52.202;9.876;2023-07-22T03:15:01;100586.53;;;11.92;100.00
19676;BME280;39539;52.202;9.876;2023-07-22T03:17:30;100592.66;;;11.93;100.00
19676;BME280;39539;52.202;9.876;2023-07-22T03:19:55;100601.84;;;11.97;100.00
19676;BME280;39539;52.202;9.876;2023-07-22T03:22:21;100602.09;;;11.95;100.00
19676;BME280;39539;52.202;9.876;2023-07-22T03:24:46;100603.94;;;11.95;100.00
19676;BME280;39539;52.202;9.876;2023-07-22T03:27:12;100598.00;;;11.93;100.00
19676;BME280;39539;52.202;9.876;2023-07-22T03:29:38;100600.44;;;11.94;100.00
19676;BME280;39539;52.202;9.876;2023-07-22T03:32:04;100609.63;;;11.98;100.00
19676;BME280;39539;52.202;9.876;2023-07-22T03:34:30;100618.22;;;12.00;100.00
19676;BME280;39539;52.202;9.876;2023-07-22T03:36:56;100625.38;;;12.00;100.00
19676;BME280;39539;52.202;9.876;2023-07-22T03:39:21;100617.03;;;11.96;100.00
19676;BME280;39539;52.202;9.876;2023-07-22T03:41:47;100617.78;;;12.03;100.00
19676;BME280;39539;52.202;9.876;2023-07-22T03:44:12;100620.84;;;12.07;100.00
19676;BME280;39539;52.202;9.876;2023-07-22T03:46:38;100617.78;;;12.03;100.00
19676;BME280;39539;52.202;9.876;2023-07-22T03:49:05;100626.53;;;12.10;100.00
19676;BME280;39539;52.202;9.876;2023-07-22T03:51:30;100615.72;;;12.05;100.00
19676;BME280;39539;52.202;9.876;2023-07-22T03:53:55;100637.53;;;12.21;100.00
19676;BME280;39539;52.202;9.876;2023-07-22T03:56:21;100627.44;;;12.23;100.00
19676;BME280;39539;52.202;9.876;2023-07-22T03:58:49;100619.63;;;12.28;100.00
19676;BME280;39539;52.202;9.876;2023-07-22T04:01:14;100612.72;;;12.20;100.00
19676;BME280;39539;52.202;9.876;2023-07-22T04:03:40;100626.16;;;12.32;100.00
19676;BME280;39539;52.202;9.876;2023-07-22T04:06:06;100605.00;;;12.37;100.00
19676;BME280;39539;52.202;9.876;2023-07-22T04:08:31;100622.56;;;12.63;100.00
19676;BME280;39539;52.202;9.876;2023-07-22T04:10:57;100619.00;;;12.69;100.00
19676;BME280;39539;52.202;9.876;2023-07-22T04:13:24;100612.94;;;12.80;100.00
19676;BME280;39539;52.202;9.876;2023-07-22T04:15:50;100610.03;;;12.82;100.00
19676;BME280;39539;52.202;9.876;2023-07-22T04:18:16;100628.84;;;13.06;100.00
19676;BME280;39539;52.202;9.876;2023-07-22T04:20:42;100629.13;;;13.34;100.00
19676;BME280;39539;52.202;9.876;2023-07-22T04:23:08;100617.31;;;13.42;100.00
19676;BME280;39539;52.202;9.876;2023-07-22T04:25:38;100613.31;;;13.63;100.00
19676;BME280;39539;52.202;9.876;2023-07-22T04:28:03;100623.47;;;13.84;100.00
19676;BME280;39539;52.202;9.876;2023-07-22T04:30:28;100620.22;;;13.94;100.00
19676;BME280;39539;52.202;9.876;2023-07-22T04:32:54;100614.78;;;14.01;100.00
19676;BME280;39539;52.202;9.876;2023-07-22T04:35:19;100613.97;;;14.12;100.00
19676;BME280;39539;52.202;9.876;2023-07-22T04:37:44;100612.94;;;14.25;100.00
19676;BME280;39539;52.202;9.876;2023-07-22T04:40:13;100614.81;;;14.36;100.00
19676;BME280;39539;52.202;9.876;2023-07-22T04:42:43;100609.31;;;14.43;100.00
19676;BME280;39539;52.202;9.876;2023-07-22T04:45:09;100610.03;;;14.50;100.00
19676;BME280;39539;52.202;9.876;2023-07-22T04:47:36;100603.44;;;14.52;100.00
19676;BME280;39539;52.202;9.876;2023-07-22T04:50:02;100612.84;;;14.67;100.00
19676;BME280;39539;52.202;9.876;2023-07-22T04:52:28;100586.91;;;14.55;100.00
19676;BME280;39539;52.202;9.876;2023-07-22T04:54:54;100611.16;;;14.77;100.00
19676;BME280;39539;52.202;9.876;2023-07-22T04:57:20;100606.28;;;14.74;100.00
19676;BME280;39539;52.202;9.876;2023-07-22T04:59:46;100615.25;;;14.80;100.00
19676;BME280;39539;52.202;9.876;2023-07-22T05:02:12;100603.63;;;14.74;100.00
19676;BME280;39539;52.202;9.876;2023-07-22T05:04:37;100603.13;;;14.89;100.00
19676;BME280;39539;52.202;9.876;2023-07-22T05:07:02;100611.69;;;15.03;100.00
19676;BME280;39539;52.202;9.876;2023-07-22T05:09:28;100612.69;;;15.14;100.00
19676;BME280;39539;52.202;9.876;2023-07-22T05:11:54;100611.41;;;15.16;100.00
19676;BME280;39539;52.202;9.876;2023-07-22T05:14:20;100609.91;;;15.20;100.00
19676;BME280;39539;52.202;9.876;2023-07-22T05:16:45;100601.94;;;15.25;100.00
19676;BME280;39539;52.202;9.876;2023-07-22T05:19:11;100606.91;;;15.34;100.00
19676;BME280;39539;52.202;9.876;2023-07-22T05:21:36;100607.75;;;15.51;100.00
19676;BME280;39539;52.202;9.876;2023-07-22T05:24:02;100588.38;;;15.44;100.00
19676;BME280;39539;52.202;9.876;2023-07-22T05:26:27;100596.38;;;15.73;100.00
19676;BME280;39539;52.202;9.876;2023-07-22T05:28:52;100593.53;;;15.79;100.00
19676;BME280;39539;52.202;9.876;2023-07-22T05:31:18;100603.03;;;15.87;100.00
19676;BME280;39539;52.202;9.876;2023-07-22T05:33:43;100587.53;;;15.89;100.00
19676;BME280;39539;52.202;9.876;2023-07-22T05:36:09;100607.28;;;16.00;100.00
19676;BME280;39539;52.202;9.876;2023-07-22T05:38:34;100597.06;;;15.97;100.00
19676;BME280;39539;52.202;9.876;2023-07-22T05:40:59;100607.91;;;16.24;100.00
19676;BME280;39539;52.202;9.876;2023-07-22T05:43:25;100604.97;;;16.42;100.00
19676;BME280;39539;52.202;9.876;2023-07-22T05:45:50;100606.66;;;16.87;100.00
19676;BME280;39539;52.202;9.876;2023-07-22T05:48:16;100615.16;;;17.28;97.58
19676;BME280;39539;52.202;9.876;2023-07-22T05:50:41;100600.97;;;17.60;95.25
19676;BME280;39539;52.202;9.876;2023-07-22T05:53:07;100599.16;;;17.98;92.22
19676;BME280;39539;52.202;9.876;2023-07-22T05:55:32;100603.94;;;18.28;89.57
19676;BME280;39539;52.202;9.876;2023-07-22T05:57:57;100609.69;;;18.47;87.80
19676;BME280;39539;52.202;9.876;2023-07-22T06:00:24;100603.94;;;18.75;89.02
19676;BME280;39539;52.202;9.876;2023-07-22T06:02:49;100600.22;;;18.87;87.53
19676;BME280;39539;52.202;9.876;2023-07-22T06:05:15;100591.63;;;18.95;87.22
19676;BME280;39539;52.202;9.876;2023-07-22T06:07:40;100605.03;;;18.74;83.96
19676;BME280;39539;52.202;9.876;2023-07-22T06:10:06;100588.38;;;18.35;85.66
19676;BME280;39539;52.202;9.876;2023-07-22T06:12:31;100597.84;;;18.48;85.53
19676;BME280;39539;52.202;9.876;2023-07-22T06:14:56;100602.88;;;18.34;86.93
19676;BME280;39539;52.202;9.876;2023-07-22T06:17:22;100598.31;;;18.29;87.74
19676;BME280;39539;52.202;9.876;2023-07-22T06:19:48;100598.63;;;18.38;89.40
19676;BME280;39539;52.202;9.876;2023-07-22T06:22:13;100585.41;;;18.36;90.49
19676;BME280;39539;52.202;9.876;2023-07-22T06:24:40;100596.34;;;18.67;89.88
19676;BME280;39539;52.202;9.876;2023-07-22T06:27:06;100587.19;;;18.73;87.67
19676;BME280;39539;52.202;9.876;2023-07-22T06:29:31;100585.28;;;18.63;83.40
19676;BME280;39539;52.202;9.876;2023-07-22T06:31:56;100595.91;;;18.80;83.18
19676;BME280;39539;52.202;9.876;2023-07-22T06:34:22;100592.19;;;19.07;81.55
19676;BME280;39539;52.202;9.876;2023-07-22T06:36:47;100592.47;;;19.05;81.41
19676;BME280;39539;52.202;9.876;2023-07-22T06:39:13;100571.16;;;18.89;81.89
19676;BME280;39539;52.202;9.876;2023-07-22T06:41:38;100591.66;;;19.00;81.55
19676;BME280;39539;52.202;9.876;2023-07-22T06:44:03;100592.00;;;19.34;83.14
19676;BME280;39539;52.202;9.876;2023-07-22T06:46:29;100594.75;;;19.65;81.80
19676;BME280;39539;52.202;9.876;2023-07-22T06:48:54;100584.78;;;19.65;79.28
19676;BME280;39539;52.202;9.876;2023-07-22T06:51:19;100588.97;;;19.00;81.07
19676;BME280;39539;52.202;9.876;2023-07-22T06:53:44;100568.06;;;18.65;81.77
19676;BME280;39539;52.202;9.876;2023-07-22T06:56:10;100577.97;;;18.49;85.02
19676;BME280;39539;52.202;9.876;2023-07-22T06:58:35;100561.44;;;17.87;86.84
19676;BME280;39539;52.202;9.876;2023-07-22T07:01:00;100576.44;;;17.83;89.84
19676;BME280;39539;52.202;9.876;2023-07-22T07:03:26;100587.28;;;17.93;91.57
19676;BME280;39539;52.202;9.876;2023-07-22T07:05:53;100575.84;;;17.76;90.95
19676;BME280;39539;52.202;9.876;2023-07-22T07:08:18;100590.53;;;17.95;90.34
19676;BME280;39539;52.202;9.876;2023-07-22T07:10:44;100581.69;;;17.68;90.85
19676;BME280;39539;52.202;9.876;2023-07-22T07:13:09;100587.03;;;17.95;88.23
19676;BME280;39539;52.202;9.876;2023-07-22T07:15:35;100583.28;;;18.38;88.72
19676;BME280;39539;52.202;9.876;2023-07-22T07:18:00;100584.00;;;18.76;86.74
19676;BME280;39539;52.202;9.876;2023-07-22T07:20:25;100583.00;;;18.93;83.83
19676;BME280;39539;52.202;9.876;2023-07-22T07:22:51;100566.84;;;18.98;82.56
19676;BME280;39539;52.202;9.876;2023-07-22T07:25:19;100582.09;;;18.72;83.53
19676;BME280;39539;52.202;9.876;2023-07-22T07:27:44;100574.25;;;18.65;85.35
19676;BME280;39539;52.202;9.876;2023-07-22T07:30:10;100572.19;;;18.88;84.34
19676;BME280;39539;52.202;9.876;2023-07-22T07:32:36;100591.72;;;19.25;80.97
19676;BME280;39539;52.202;9.876;2023-07-22T07:35:01;100584.06;;;18.87;81.47
19676;BME280;39539;52.202;9.876;2023-07-22T07:37:27;100579.06;;;18.58;82.41
19676;BME280;39539;52.202;9.876;2023-07-22T07:39:55;100580.91;;;18.47;85.97
19676;BME280;39539;52.202;9.876;2023-07-22T07:42:33;100579.81;;;18.43;84.64
19676;BME280;39539;52.202;9.876;2023-07-22T07:44:59;100593.31;;;18.53;86.30
19676;BME280;39539;52.202;9.876;2023-07-22T07:47:27;100584.03;;;18.81;85.03
19676;BME280;39539;52.202;9.876;2023-07-22T07:49:53;100587.38;;;19.14;83.81
19676;BME280;39539;52.202;9.876;2023-07-22T07:52:19;100591.78;;;19.66;81.17
19676;BME280;39539;52.202;9.876;2023-07-22T07:54:45;100594.50;;;19.71;75.82
19676;BME280;39539;52.202;9.876;2023-07-22T07:57:10;100595.56;;;19.65;77.12
19676;BME280;39539;52.202;9.876;2023-07-22T07:59:36;100588.44;;;19.03;77.05
19676;BME280;39539;52.202;9.876;2023-07-22T08:02:05;100595.22;;;18.58;81.86
19676;BME280;39539;52.202;9.876;2023-07-22T08:04:34;100592.06;;;18.71;83.14
19676;BME280;39539;52.202;9.876;2023-07-22T08:07:06;100583.59;;;18.47;83.57
19676;BME280;39539;52.202;9.876;2023-07-22T08:09:35;100580.56;;;18.33;85.41
19676;BME280;39539;52.202;9.876;2023-07-22T08:12:06;100590.47;;;18.75;85.01
19676;BME280;39539;52.202;9.876;2023-07-22T08:14:31;100582.44;;;18.91;82.91
19676;BME280;39539;52.202;9.876;2023-07-22T08:16:57;100591.16;;;19.08;81.11
19676;BME280;39539;52.202;9.876;2023-07-22T08:19:22;100587.38;;;19.09;80.74
19676;BME280;39539;52.202;9.876;2023-07-22T08:21:48;100596.06;;;19.37;80.89
19676;BME280;39539;52.202;9.876;2023-07-22T08:24:13;100601.50;;;20.13;77.85
19676;BME280;39539;52.202;9.876;2023-07-22T08:26:38;100590.72;;;21.83;72.51
19676;BME280;39539;52.202;9.876;2023-07-22T08:29:04;100597.78;;;22.85;66.38
19676;BME280;39539;52.202;9.876;2023-07-22T08:31:29;100578.50;;;22.86;63.74
19676;BME280;39539;52.202;9.876;2023-07-22T08:33:55;100604.63;;;24.24;62.36
19676;BME280;39539;52.202;9.876;2023-07-22T08:36:20;100602.22;;;25.64;55.24
19676;BME280;39539;52.202;9.876;2023-07-22T08:38:45;100598.25;;;26.55;53.66
19676;BME280;39539;52.202;9.876;2023-07-22T08:41:14;100584.53;;;25.97;54.57
19676;BME280;39539;52.202;9.876;2023-07-22T08:43:45;100594.97;;;26.75;51.90
19676;BME280;39539;52.202;9.876;2023-07-22T08:46:12;100576.47;;;26.24;52.19
19676;BME280;39539;52.202;9.876;2023-07-22T08:48:41;100566.13;;;27.44;50.43
19676;BME280;39539;52.202;9.876;2023-07-22T08:51:21;100566.97;;;28.38;48.51
19676;BME280;39539;52.202;9.876;2023-07-22T08:53:49;100587.47;;;28.92;47.63
19676;BME280;39539;52.202;9.876;2023-07-22T08:56:14;100575.00;;;28.52;48.79
19676;BME280;39539;52.202;9.876;2023-07-22T08:58:41;100578.34;;;27.38;50.05
19676;BME280;39539;52.202;9.876;2023-07-22T09:01:11;100563.72;;;27.34;50.47
19676;BME280;39539;52.202;9.876;2023-07-22T09:03:38;100570.97;;;27.21;52.05
19676;BME280;39539;52.202;9.876;2023-07-22T09:06:05;100558.59;;;26.49;50.96
19676;BME280;39539;52.202;9.876;2023-07-22T09:08:31;100552.75;;;25.93;53.83
19676;BME280;39539;52.202;9.876;2023-07-22T09:11:15;100567.41;;;26.46;54.41
19676;BME280;39539;52.202;9.876;2023-07-22T09:13:44;100539.59;;;26.83;52.04
19676;BME280;39539;52.202;9.876;2023-07-22T09:16:11;100546.00;;;26.70;51.90
19676;BME280;39539;52.202;9.876;2023-07-22T09:18:38;100546.53;;;26.81;52.59
19676;BME280;39539;52.202;9.876;2023-07-22T09:21:04;100533.44;;;26.52;52.61
19676;BME280;39539;52.202;9.876;2023-07-22T09:23:38;100536.28;;;26.47;52.97
19676;BME280;39539;52.202;9.876;2023-07-22T09:26:11;100522.88;;;25.79;53.29
19676;BME280;39539;52.202;9.876;2023-07-22T09:28:57;100539.75;;;26.21;52.70
19676;BME280;39539;52.202;9.876;2023-07-22T09:31:25;100545.09;;;27.36;52.58
19676;BME280;39539;52.202;9.876;2023-07-22T09:33:51;100541.16;;;27.89;49.06
19676;BME280;39539;52.202;9.876;2023-07-22T09:36:56;100535.03;;;28.60;48.02
19676;BME280;39539;52.202;9.876;2023-07-22T09:39:24;100545.34;;;29.26;47.08
19676;BME280;39539;52.202;9.876;2023-07-22T09:41:50;100533.31;;;29.97;45.50
19676;BME280;39539;52.202;9.876;2023-07-22T09:44:18;100536.00;;;31.36;43.20
19676;BME280;39539;52.202;9.876;2023-07-22T09:46:49;100553.28;;;31.96;43.99
19676;BME280;39539;52.202;9.876;2023-07-22T09:49:16;100544.22;;;30.55;42.92
19676;BME280;39539;52.202;9.876;2023-07-22T09:51:43;100539.81;;;29.47;44.94
19676;BME280;39539;52.202;9.876;2023-07-22T09:54:09;100530.28;;;29.53;46.24
19676;BME280;39539;52.202;9.876;2023-07-22T09:56:46;100525.25;;;30.37;44.57
19676;BME280;39539;52.202;9.876;2023-07-22T09:59:13;100524.09;;;31.03;42.80
19676;BME280;39539;52.202;9.876;2023-07-22T10:01:40;100524.25;;;30.95;44.88
19676;BME280;39539;52.202;9.876;2023-07-22T10:04:07;100519.75;;;31.30;43.59
19676;BME280;39539;52.202;9.876;2023-07-22T10:06:34;100529.78;;;29.96;44.26
19676;BME280;39539;52.202;9.876;2023-07-22T10:09:03;100530.63;;;31.27;45.62
19676;BME280;39539;52.202;9.876;2023-07-22T10:11:39;100521.09;;;31.81;43.25
19676;BME280;39539;52.202;9.876;2023-07-22T10:14:06;100511.84;;;30.60;42.32
19676;BME280;39539;52.202;9.876;2023-07-22T10:16:32;100514.97;;;29.19;45.35
19676;BME280;39539;52.202;9.876;2023-07-22T10:18:59;100518.63;;;28.81;46.64
19676;BME280;39539;52.202;9.876;2023-07-22T10:21:25;100494.88;;;27.75;48.45
19676;BME280;39539;52.202;9.876;2023-07-22T10:23:51;100505.59;;;27.07;49.76
19676;BME280;39539;52.202;9.876;2023-07-22T10:26:18;100530.47;;;28.43;49.68
19676;BME280;39539;52.202;9.876;2023-07-22T10:28:45;100522.88;;;27.81;48.06
19676;BME280;39539;52.202;9.876;2023-07-22T10:31:11;100516.66;;;26.67;49.68
19676;BME280;39539;52.202;9.876;2023-07-22T10:33:38;100507.47;;;25.74;51.91
19676;BME280;39539;52.202;9.876;2023-07-22T10:36:07;100527.25;;;25.58;54.46
19676;BME280;39539;52.202;9.876;2023-07-22T10:38:34;100516.84;;;25.60;53.02
19676;BME280;39539;52.202;9.876;2023-07-22T10:41:11;100524.50;;;25.80;52.61
19676;BME280;39539;52.202;9.876;2023-07-22T10:43:39;100505.25;;;25.23;53.40
19676;BME280;39539;52.202;9.876;2023-07-22T10:46:12;100516.19;;;24.04;57.11
19676;BME280;39539;52.202;9.876;2023-07-22T10:48:39;100507.63;;;24.38;56.15
19676;BME280;39539;52.202;9.876;2023-07-22T10:51:07;100519.28;;;24.80;55.51
19676;BME280;39539;52.202;9.876;2023-07-22T10:53:37;100520.22;;;24.98;54.86
19676;BME280;39539;52.202;9.876;2023-07-22T10:58:55;100512.78;;;25.26;53.89
19676;BME280;39539;52.202;9.876;2023-07-22T11:01:36;100500.16;;;25.30;53.44
19676;BME280;39539;52.202;9.876;2023-07-22T11:14:34;100480.75;;;24.09;54.87
19676;BME280;39539;52.202;9.876;2023-07-22T11:17:01;100495.97;;;24.10;54.62
19676;BME280;39539;52.202;9.876;2023-07-22T11:19:31;100477.75;;;24.38;55.67
19676;BME280;39539;52.202;9.876;2023-07-22T11:21:57;100486.41;;;25.13;54.24
19676;BME280;39539;52.202;9.876;2023-07-22T11:24:24;100471.81;;;25.22;52.25
19676;BME280;39539;52.202;9.876;2023-07-22T11:26:50;100467.16;;;25.23;53.48
19676;BME280;39539;52.202;9.876;2023-07-22T11:29:17;100466.00;;;25.46;52.46
19676;BME280;39539;52.202;9.876;2023-07-22T11:31:46;100470.28;;;25.70;51.27
19676;BME280;39539;52.202;9.876;2023-07-22T11:34:13;100467.28;;;26.20;53.00
19676;BME280;39539;52.202;9.876;2023-07-22T11:36:39;100465.41;;;26.38;51.76
19676;BME280;39539;52.202;9.876;2023-07-22T11:39:09;100443.88;;;26.10;50.75
19676;BME280;39539;52.202;9.876;2023-07-22T11:41:35;100426.44;;;25.80;50.96
19676;BME280;39539;52.202;9.876;2023-07-22T11:44:02;100436.69;;;25.43;50.60
19676;BME280;39539;52.202;9.876;2023-07-22T11:46:35;100437.34;;;25.18;50.24
19676;BME280;39539;52.202;9.876;2023-07-22T11:49:02;100434.81;;;25.52;51.19
19676;BME280;39539;52.202;9.876;2023-07-22T11:51:28;100431.19;;;25.66;50.35
19676;BME280;39539;52.202;9.876;2023-07-22T11:53:54;100428.47;;;25.66;50.34
19676;BME280;39539;52.202;9.876;2023-07-22T11:56:21;100419.94;;;25.90;50.18
19676;BME280;39539;52.202;9.876;2023-07-22T11:58:57;100395.00;;;26.14;49.29
19676;BME280;39539;52.202;9.876;2023-07-22T12:01:23;100425.28;;;26.21;49.78
19676;BME280;39539;52.202;9.876;2023-07-22T12:03:49;100399.50;;;26.18;48.71
19676;BME280;39539;52.202;9.876;2023-07-22T12:06:20;100403.16;;;25.57;49.97
19676;BME280;39539;52.202;9.876;2023-07-22T12:08:47;100405.75;;;25.39;50.35
19676;BME280;39539;52.202;9.876;2023-07-22T12:11:23;100404.78;;;25.35;50.94
19676;BME280;39539;52.202;9.876;2023-07-22T12:14:10;100407.34;;;25.71;48.61
19676;BME280;39539;52.202;9.876;2023-07-22T12:16:38;100413.81;;;25.84;50.31
19676;BME280;39539;52.202;9.876;2023-07-22T12:19:09;100420.19;;;26.46;50.68
19676;BME280;39539;52.202;9.876;2023-07-22T12:21:35;100409.75;;;27.17;48.10
19676;BME280;39539;52.202;9.876;2023-07-22T12:24:01;100410.13;;;27.54;47.01
19676;BME280;39539;52.202;9.876;2023-07-22T12:26:27;100417.59;;;27.83;47.26
19676;BME280;39539;52.202;9.876;2023-07-22T12:28:52;100406.69;;;27.27;45.79
19676;BME280;39539;52.202;9.876;2023-07-22T12:31:18;100397.03;;;27.39;46.71
19676;BME280;39539;52.202;9.876;2023-07-22T12:33:43;100397.34;;;27.37;47.49
19676;BME280;39539;52.202;9.876;2023-07-22T12:36:09;100393.28;;;27.52;44.84
19676;BME280;39539;52.202;9.876;2023-07-22T12:38:35;100385.44;;;27.42;46.24
19676;BME280;39539;52.202;9.876;2023-07-22T12:41:01;100385.34;;;27.29;45.94
19676;BME280;39539;52.202;9.876;2023-07-22T12:43:28;100383.69;;;27.37;46.73
19676;BME280;39539;52.202;9.876;2023-07-22T12:45:55;100386.84;;;27.01;46.74
19676;BME280;39539;52.202;9.876;2023-07-22T12:48:21;100384.63;;;26.51;48.07
19676;BME280;39539;52.202;9.876;2023-07-22T12:50:47;100370.13;;;26.07;46.48
19676;BME280;39539;52.202;9.876;2023-07-22T12:53:14;100368.13;;;25.33;50.98
19676;BME280;39539;52.202;9.876;2023-07-22T12:55:40;100363.41;;;24.93;50.55